首页
METAR-TAF:

METAR-TAF

机场 :

Cherry Capital Airport

特拉弗斯城, 密歇根州, 美国

纬度: 44-44-12N, 经度: 085-34-12W, 海拔: 190米

当前天气观测

该预报发布于18分钟前的23:53 UTC
风速5节,风向
温度 19°C
湿度 88%
气压 1000 hPa
能見度: 16.1公里
少量云层高于8000英尺
散云层高于12000英尺
阴天层高于15000英尺

METAR: KTVC 242353Z 17005KT 10SM FEW080 SCT120 OVC150 19/17 A2954 RMK AO2 RAE21 SLP000 P0000 60062 T01890172 10239 20183 58001

时间: 20:11 (00:11 UTC)

预报

该预报发布于38分钟前的23:33 UTC
预报有效从25日的 00点(UTC)到 25日的 24点(UTC)
风速6节,风向南转西南
能見度: 9.7公里
散云层高于2400英尺
阴天层高于5000英尺
小阵雨, 轻雾
从 25日的 0700点(UTC)
风速11节,风向西南,有时为19节阵风
能見度: 10公里
阴天层高于1100英尺
小阵雨
从 25日的 0900点(UTC)
风速12节,风向西转西南
能見度: 10公里
阴天层高于3000英尺
附近有阵雨
从 25日的 1100点(UTC)
风速11节,风向西转西南,有时为19节阵风
能見度: 10公里
阴天层高于5000英尺

TAF: KTVC 242333Z 2500/2524 21006KT 6SM -SHRA BR SCT024 OVC050 FM250700 22011G19KT P6SM -SHRA OVC011 FM250900 25012KT P6SM VCSH OVC030 FM251100 25011G19KT P6SM OVC050

超过4000个机场的气象观测和天气预报(METAR&TAF报告)。

可查询的气象台以黄色和红色小点在地图上表示。

将鼠标移到小点上方,可查看气象台名称。

然后点击查看天气观测和预报。

如需切换地图:点击带黑十字的绿色按钮放大地图;点击带横线的绿色按钮缩小地图;或者点击绿色箭头查看邻近地区的地图。


METAR-TAF: